LiveATC.Net - Listen to live air traffic control over the Internet!

Find LiveATC Audio Streams


Airport/ARTCC Code

Frequency Search
(e.g., 124.400, 128.75)
Site-wide search
 


Browse LiveATC Feeds
Top 50 LiveATC Feeds
Bad Weather Areas

LiveATC FAQ
Offer a LiveATC Feed
Contact LiveATC.net
Press Inquiries

LiveATC on iPhone
LiveATC on Android

Windows Phone
Windows 8/10

LiveATC Mobile
(Mobile browser)

ATC Audio Archives
Interesting Recordings

LiveATC Forums

Home Page
About LiveATC.net
Make a Donation
Terms of Use
Privacy Policy

Canadian Air Freqs

AIRMETs/SIGMETs

FAA Airport Status
Nat'l Airspace Status
Arrival Demand Charts


Server Software By:
Icecast.org
Liquidsoap


Current Potentially Bad Weather Airports
(updated every 30 minutes - sorted alphabetically by ICAO code)



This page lists LiveATC.net airport areas that may be interesting to listen to because of challenging flying (weather) conditions. Challenging weather conditions include low ceilings, limited visibility, high or gusty winds, or thunderstorms.

Updated: Sat Aug 18 18:40:01 UTC 2018
Click on airport name to go to that airport area's feeds.

51FL/KCDK/KCTY/X60 CTAF Chiefland Sky Ranch Airport (Chiefland, US-FL)
kctyNearest METAR:
KCTY 181815Z AUTO 23007G15KT 190V250 10SM SCT042 OVC050 32/24 A3009 RMK AO2 LTG DSNT NW T03230236
Australia - ATC Satellite Feed Sydney International Airport (Sydney, AU-NSW)
WX MAP UNAVAILABLENearest METAR:
YSSY 181815Z 30021G32KT CAVOK 10/M01 Q1009
CYBW Tower (Inner) Springbank Airport (Calgary, CA-AB)
WX MAP UNAVAILABLENearest METAR:
CYBW 181800Z AUTO 02012G21KT 1 1/4SM HZ OVC033 17/04 A3029 RMK SLP263 DENSITY ALT 4600FT
CYHZ Del/Gnd/Twr/App Halifax International Airport (Halifax, CA-NS)
WX MAP UNAVAILABLENearest METAR:
CYHZ 181800Z 17007KT 1 1/4SM -RA BR VV001 20/20 A2978 RMK FG8 SLP086 DENSITY ALT 1400FT
CYQI/CZQM CTAF/FIC/Center Yarmouth Airport (Yarmouth, CA-NS)
WX MAP UNAVAILABLENearest METAR:
CYQI 181800Z 24014G23KT 1SM BR OVC002 20/20 A2975 RMK FG6SF2 SLP075 DENSITY ALT 1000FT
CYQM App/Dep Greater Moncton International Airport (Moncton, CA-NB)
cyqmNearest METAR:
CYQM 181800Z 04010KT 4SM RA BR OVC004 16/16 A2978 RMK SF8 /R40/ SLP085 DENSITY ALT 600FT
CYYC Twr/App/Center Calgary International Airport (Calgary, CA-AB)
WX MAP UNAVAILABLENearest METAR:
CYYC 181800Z 36018KT 1SM R35L/P6000FT/N R29/P6000FT/N R35R/P6000FT/N FU VV030 18/03 A3026 RMK FU8 SLP249 DENSITY ALT 4500FT
EICK Ground/Tower Cork Airport (Cork, Ireland)
WX MAP UNAVAILABLENearest METAR:
EICK 181800Z 21014KT 0500 R16/P2000 R34/P2000 FG -DZ OVC002 17/16 Q1016 TEMPO 1200
KAEG Twr/App Double Eagle II Airport (Albuquerque, US-NM)
kaegNearest METAR:
KAEG 181747Z 240063KT 10SM FEW050 SCT130 24/16 A3030
KABY Ground/Tower Southwest Georgia Regional Airport (Albany, US-GA)
kabyNearest METAR:
KABY 181753Z 22013G16KT 10SM VCTS FEW025 FEW047 SCT095 31/24 A3008 RMK AO2 LTG DSNT W RAB02E18 SLP184 P0000 60000 T03060239 10317 20233 56021 $
KAPA Gnd/Twr/Denver App Centennial Airport (Denver, US-CO)
kapaNearest METAR:
KAPA 181815Z 28016G26KT 7SM -TSRA SCT050CB SCT090 OVC110 19/14 A3026 RMK AO2 PK WND 26027/1805 WSHFT 1758 LTG DSNT SE AND S RAB00 OCNL LTGICCG S-W TS S-W MOV NE PRESRR P0000 T01940144
KAVL Gnd/Twr/App Asheville Regional Airport (Asheville, US-NC)
kavlNearest METAR:
KAVL 181813Z VRB03KT 10SM FEW015 SCT037 BKN049 24/22 A3005 RMK AO2 LTG DSNT E AND S RAE09 P0016 T02440217
KAVP Gnd/Twr/App Wilkes-Barre/Scranton International Airport (Wilkes-Barre/Scranton, US-PA)
kavpNearest METAR:
KAVP 181828Z 11003KT 3SM R04/5000VP6000FT -RA BR FEW013 BKN018 OVC032 22/21 A2986 RMK AO2 LTG DSNT E P0027 T02220211
KBAF Ground/Tower Barnes Municipal Airport (Westfield/Springfield, US-MA)
kbafNearest METAR:
KBAF 181822Z VRB05KT 3/4SM R20/4500VP6000FT +TSRA BR OVC029 23/23 A2979 RMK AO2 WSHFT 1757 LTG DSNT NE AND SW AND W RAB01 TSE1754B13 TS OVD MOV E AND SE P0029 T02330228 $
KBCT ATIS Boca Raton Airport (Boca Raton, US-FL)
kbctNearest METAR:
KBCT 181755Z 12012KT 10SM SCT024 32/24 A3010 RMK LTG DSNT SW-N
KBDL Approach/ANG Bradley International Airport (Windsor Locks, US-CT)
kbdlNearest METAR:
KBDL 181751Z 22008KT 10SM FEW026 SCT037 BKN110 BKN250 29/22 A2976 RMK AO2 LTG DSNT N AND NE AND SW SLP077 CB DSNT W-N MOV NE T02890217 10294 20233 58014 $
ZBW Boston Center (ATH38 High) General Edward Lawrence Logan International Airport (Boston, US-MA)
kbosNearest METAR:
KBOS 181815Z 32014G25KT 10SM FEW031CB BKN040 BKN120 OVC220 28/21 A2977 RMK AO2 WSHFT 1800 LTG DSNT NE CB W-NE MOV E T02780206 $
KBDR Del/Gnd/Twr/App Igor I Sikorsky Memorial Airport (Bridgeport, US-CT)
kbdrNearest METAR:
KBDR 181752Z 23009KT 10SM CLR 29/22 A2978 RMK AO2 LTG DSNT N SLP084 60000 T02890222 10294 20239 58019
KBED Clearance Delivery Laurence G Hanscom Field Airport (Bedford, US-MA)
kbedNearest METAR:
KBED 181828Z 35005KT 3SM R11/4000VP6000FT -TSRA BR BKN008 BKN020 OVC034 23/22 A2977 RMK AO2 P0010 T02330217
MA/NH/RI/CT Area CTAF Hopedale Industrial Park Airport (Hopedale, US-MA)
koreNearest METAR:
KORE 181801Z AUTO 00000KT 10SM -RA SCT022 SCT047 BKN100 24/22 A2982 RMK AO2 LTG DSNT SW RAB00 P0000 T02440217
MA/NH/RI/CT Area CTAF Hopedale Industrial Park Airport (Hopedale, US-MA)
kfitNearest METAR:
KFIT 181823Z AUTO 33007KT 10SM -RA SCT014 BKN021 BKN030 25/21 A2979 RMK AO2 LTG DSNT SW RAB14 P0000 T02500211
KBTR/KHZR/L38 Del/Gnd/Twr/App/CTAF Baton Rouge Metropolitan Airport - Ryan Field (Baton Rouge, US-LA)
khzrNearest METAR:
KHZR 172010Z AUTO 16008KT 10SM VCTS CLR 31/23 A3006 RMK AO2 LTG DSNT E SE AND NW T03130230
KBVY Tower #1 Beverly Municipal Airport (Beverly, US-MA)
kbvyNearest METAR:
KBVY 181826Z 31007KT 6SM -RA BR FEW019 SCT095 BKN110 23/22 A2978 RMK AO2 LTG DSNT E TS W MOV E P0003 T02330222
KCCO CTAF Newnan Coweta County Airport (Atlanta, US-GA)
kccoNearest METAR:
KCCO 181815Z AUTO 21006KT 10SM BKN028 BKN037 BKN046 30/22 A3005 RMK AO2 LTG DSNT S AND SW T03010220
KCTJ/KLGC CTAF LaGrange-Callaway Airport (Lagrange, US-GA)
klgcNearest METAR:
KLGC 181815Z AUTO 22005KT 10SM SCT022 BKN029 BKN034 31/25 A3004 RMK AO2 LTG DSNT S THRU W T03110248
KCTJ/KLGC CTAF LaGrange-Callaway Airport (Lagrange, US-GA)
kctjNearest METAR:
KCTJ 181810Z AUTO 27005KT 10SM SCT025 SCT030 BKN036 28/22 A3008 RMK AO2 LTG DSNT W T02820224
KCEZ CTAF/ZDV Cortez Municipal Airport (Cortez, US-CO)
kcezNearest METAR:
KCEZ 181753Z AUTO 32007KT 270V060 10SM FEW060 27/11 A3026 RMK AO2 LTG DSNT E SLP159 T02670111 10278 20161 58014
KCOS Gnd/Twr/App/Dep City of Colorado Springs Municipal Airport (Colorado Springs, US-CO)
kcosNearest METAR:
KCOS 181813Z 00000KT 7SM SCT015 BKN100 19/14 A3025 RMK AO2 OCNL LTGICCG DSNT N AND NW T01940144
KDEN Approach Denver International Airport (Denver, US-CO)
kdenNearest METAR:
KDEN 181753Z 35009KT 10SM BKN140 BKN220 24/13 A3018 RMK AO2 LTG DSNT SW SLP145 T02390133 10239 20139 53007 $
KDXR Ground/Tower Danbury Municipal Airport (Danbury, US-CT)
kdxrNearest METAR:
KDXR 181753Z 24008KT 10SM CLR 27/22 A2980 RMK AO2 LTG DSNT NE SLP087 T02720222 10278 20228 58020 $
KFLL Ground/Tower Fort Lauderdale/Hollywood International Airport (Fort Lauderdale, US-FL)
kfllNearest METAR:
KFLL 181753Z 14008KT 10SM FEW025 SCT150 BKN250 31/26 A3009 RMK AO2 LTG DSNT NW SLP190 T03060256 10317 20283 58010
KFPR Gnd/Twr St Lucie County International Airport (Fort Pierce, US-FL)
kfprNearest METAR:
KFPR 181821Z 13010KT 10SM VCTS -RA FEW024 SCT070 OVC095 30/25 A3010 RMK AO2 LTG DSNT S-W RAB08 P0000 T03000250
KFXE Tower #1 Fort Lauderdale Executive Airport (Fort Lauderdale, US-FL)
kfxeNearest METAR:
KFXE 181753Z 13010KT 10SM SCT030 33/23 A3010 RMK AO2 LTG DSNT NW RAE49 TSE49 SLP194 P0000 60000 T03280233 10333 20272 58012
KGMU Ground/Tower Greenville Downtown Airport (Greenville, US-SC)
kgmuNearest METAR:
KGMU 181809Z 23011G21KT 10SM SCT029 BKN038 BKN050 29/22 A3001 RMK AO2 LTG DSNT NW T02940217
KGSP App/Dep (East) Greenville Spartanburg International Airport (Greer, US-SC)
kgspNearest METAR:
KGSP 181800Z 22013G19KT 10SM SCT030 BKN039 BKN048 29/22 A3001 RMK AO2 LTG DSNT W T02890217
KGPT App/Dep Gulfport-Biloxi International Airport (Gulfport, US-MS)
kgptNearest METAR:
KGPT 181753Z 19006KT 10SM VCTS BKN014 BKN039 28/25 A3005 RMK AO2 LTG DSNT NE AND NW RAB07E24 SLP176 P0001 60009 T02780250 10300 20244 58012
KHDC De/Gnd/Twr/App/ZHU Hammond Northshore Regional Airport (Hammond, US-LA)
khdcNearest METAR:
KHDC 181815Z AUTO 18008KT BKN034 BKN050 BKN085 30/25 A3002 RMK AO2 LTG DSNT E THRU SW PWINO
KHFD Ground/Tower Hartford-Brainard Airport (Hartford, US-CT)
khfdNearest METAR:
KHFD 181753Z 17004KT 10SM FEW022 SCT027 BKN110 28/23 A2976 RMK AO2 LTG DSNT N AND SW SLP077 T02830233 10283 20233 58021
KHVN Ground/Tower Tweed-New Haven Airport (New Haven, US-CT)
khvnNearest METAR:
KHVN 181753Z 21009KT 10SM SCT017 BKN140 27/23 A2978 RMK AO2 LTG DSNT N AND NW SLP085 T02720233 10283 20244 58018
KHWO Twr/CTAF/App North Perry Airport (Hollywood, US-FL)
khwoNearest METAR:
KHWO 181753Z 12007KT 10SM FEW031 32/24 A3011 RMK AO2 LTG DSNT NW SLP196 T03170239 10328 20278 58011
KINT Ground/Tower Smith Reynolds Airport (Winston Salem, US-NC)
kintNearest METAR:
KINT 181816Z 23005KT 10SM VCTS SCT021 SCT028 BKN034 27/22 A2999 RMK AO2 LTG DSNT NW T02720217
KJAN Gnd/Twr/App/Dep Jackson-Medgar Wiley Evers International Airport (Jackson, US-MS)
kjanNearest METAR:
KJAN 181818Z 03005KT 5SM -TSRA BR SCT017 BKN027 BKN039CB 26/24 A3001 RMK AO2 WSHFT 1744 TSB10 OCNL LTGICCCCG SE TS SE MOV S P0018 T02610244
KJFX CTAF Walker County Airport-Bevill Field (Jasper, US-AL)
kjfxNearest METAR:
KJFX 181815Z AUTO 23005KT 10SM 31/23 A3001 RMK AO2 LTG DSNT S PWINO
KLBB Gnd/Twr/App Lubbock Preston Smith International Airport (Lubbock, US-TX)
klbbNearest METAR:
KLBB 181753Z 17004KT 10SM FEW070 SCT110 BKN140 25/19 A3014 RMK AO2 LTG DSNT W RAB40E49 SLP156 CB DSNT SW-NW MOV SE SLO P0000 60038 T02500194 10250 20200 56023
KLBX CTAF Texas Gulf Coast Regional Airport (Angleton/Lake Jackson, US-TX)
klbxNearest METAR:
KLBX 181824Z AUTO 16011KT 10SM -TSRA FEW030 SCT044 BKN055 32/25 A3002 RMK AO2 RAB15 TSB18 P0000 T03220250
KLEX Del/Gnd/Twr/App Blue Grass Airport (Lexington, US-KY)
klexNearest METAR:
KLEX 181810Z 20006KT 8SM FEW009 FEW080 26/23 A2995 RMK AO2 LTG DSNT SE AND S T02560228
KLWM Ground/Tower Lawrence Municipal Airport (Lawrence, US-MA)
klwmNearest METAR:
KLWM 181754Z 30004KT 8SM -RA SCT036 SCT050 BKN100 24/20 A2981 RMK AO2 LTG DSNT E RAB15 SLP092 P0001 60001 T02390200 10306 20239 53003
KHGR Tower Hagerstown Regional Airport-Richard A Henson Field (Hagerstown, US-MD)
khgrNearest METAR:
KHGR 181821Z 31013KT 3/4SM +RA BR BKN026 BKN031 OVC043 23/21 A2989 RMK AO2 LTG DSNT SW AND W RAB12 TSB05E20 TS OHD MOV E P0028 T02280211 $
KMSY Gnd/Twr/App Louis Armstrong New Orleans International Airport (New Orleans, US-LA)
kmsyNearest METAR:
KMSY 181753Z 16007KT 6SM -TSRA BR SCT014 BKN035CB BKN100 OVC250 25/23 A3006 RMK AO2 LTG DSNT ALQDS TSB03 SLP182 OCNL LTGICCC E-S FRQ LTGICCCCG SW-W TS E-W MOV E CB DSNT N-NE P0049 60079 T02500228 10322 20244 56004
KORH Del/Gnd/Twr Worcester Regional Airport (Worcester, US-MA)
korhNearest METAR:
KORH 181801Z 36007KT 10SM BKN026 26/21 A2982 RMK AO2 LTG DSNT W T02560206
KPKB Gnd/Twr/Unicom Mid-Ohio Valley Regional Airport (Parkersburg, US-WV)
kpkbNearest METAR:
KPKB 181753Z 20004KT 10SM -RA FEW050 BKN090 OVC110 22/20 A2997 RMK AO2 LTG DSNT SW RAB01 TSB12E29E40 SLP144 P0051 60051 T02170200 10272 20217 56006
KPSF CTAF Pittsfield Municipal Airport (Pittsfield, US-MA)
kpsfNearest METAR:
KPSF 181800Z AUTO 03005KT 6SM -RA BR FEW009 BKN100 BKN110 20/18 A2984 RMK AO2 LTG DSNT S AND SW P0002 T02000178
KPUB App/Dep (Denver App) Pueblo Memorial Airport (Pueblo, US-CO)
kpubNearest METAR:
KPUB 181817Z 10007KT 10SM SCT018 23/18 A3013 RMK AO2 LTG DSNT SW T02280178
KPXE CTAF Perry-Houston County Airport (Perry, US-GA)
kpxeNearest METAR:
KPXE 181815Z AUTO 20011G17KT 10SM -RA SCT012 BKN031 BKN050 26/24 A3007 RMK AO2 LTG DSNT E SE AND W T02650237
KRSW Twr/App/Dep Southwest Florida International Airport (Fort Myers, US-FL)
krswNearest METAR:
KRSW 181753Z 00000KT 10SM BKN039 32/21 A3008 RMK AO2 LTG DSNT E SLP183 T03220211 10333 20250 58020
KSEF CTAF Sebring Regional Airport (Sebring, US-FL)
ksefNearest METAR:
KSEF 181815Z AUTO 07003KT 10SM VCTS CLR 34/22 A3010 RMK AO2 LTG DSNT E THRU S T03390216
KTLH Del/Gnd/Twr/App Tallahassee Regional Airport (Tallahassee, US-FL)
ktlhNearest METAR:
KTLH 181822Z 4SM +TSRA BR BKN015 BKN037CB BKN250 24/22 A3010 RMK AO2 LTG DSNT ALQDS OCNL LTGICCG OHD-SW TS OHD-SW MOV NE P0041 T02440222 $
KVRB App/ZMA Vero Beach Municipal Airport (Vero Beach, US-FL)
kvrbNearest METAR:
KVRB 181753Z 13010KT 10SM FEW024 SCT040 BKN110 31/24 A3011 RMK AO2 LTG DSNT SW AND W RAE03B32E42 SLP196 P0000 60000 T03060239 10322 20261 58013
LROP Bucharest Twr/App Otopeni International Airport (Bucharest, Romania)
WX MAP UNAVAILABLENearest METAR:
LROP 181800Z 32006KT 9999 TS SCT050CB 24/15 Q1016 TEMPO 5000 TSRA
MMHO App/Dep Hermosillo International Airport (Hermosillo, Mexico)
WX MAP UNAVAILABLENearest METAR:
MMHO 181814Z 32008KT 10SM -TSRA OVC070 24/23 A3008 RMK 8/06/
OPLA/OPLH Gnd/Twr/App Allama Iqbal International Airport (Lahore, Pakistan)
WX MAP UNAVAILABLENearest METAR:
OPLA 181755Z 17003KT 4000 FU SCT040 BKN100 26/24 Q1000 RMK A29.54 RMK QFE975 TEMPO 32015G35KT 2000 TSRA FEW030CB
PADQ Gnd/Twr/ZAN Kodiak Airport (Kodiak, US-AK)
padqNearest METAR:
PADQ 181804Z 05016KT 2SM -RA BR OVC005 12/11 A3016 RMK AO2 P0001 T01170106
KHUA Tower Redstone Army Airfield (Huntsville, US-AL)
khuaNearest METAR:
KHUA 181758Z AUTO 27005KT 10SM SCT025 SCT030 BKN100 28/21 A3000 RMK AO2 LTG DSNT SW SLP153 T02830208 10283 20233 57016